Terminal Aerodrome Forecast
Issued by NWS

Home | Current Version | Previous Version | Text Only | Print | Product List | Glossary On
Versions: 1 2 3 4 5 6 7 8 9 10 11 12
052
FTUS45 KABQ 241125
TAFTCC
TAF
KTCC 241125Z 2412/2512 22008KT P6SM SKC
     FM241330 03016G26KT P6SM SKC
     FM242100 05022G31KT P6SM SCT035
     FM250100 05027G35KT P6SM BKN020
     FM250600 05020G27KT P6SM OVC020=

USA.gov is the U.S. government's official web portal to all federal, state and local government web resources and services.